sensor_id;sensor_type;location;lat;lon;timestamp;pressure;altitude;pressure_sealevel;temperature;humidity
42247;BME280;27913;42.722;23.268;2023-02-14T00:00:40;96355.31;;;0.57;76.60
42247;BME280;27913;42.722;23.268;2023-02-14T00:03:06;96436.66;;;0.98;76.81
42247;BME280;27913;42.722;23.268;2023-02-14T00:05:31;96433.13;;;0.99;76.63
42247;BME280;27913;42.722;23.268;2023-02-14T00:07:57;96327.19;;;0.36;77.03
42247;BME280;27913;42.722;23.268;2023-02-14T00:10:22;96430.75;;;0.96;77.00
42247;BME280;27913;42.722;23.268;2023-02-14T00:12:48;96426.31;;;0.98;77.22
42247;BME280;27913;42.722;23.268;2023-02-14T00:15:13;96433.22;;;0.98;77.18
42247;BME280;27913;42.722;23.268;2023-02-14T00:17:52;96402.41;;;0.78;77.10
42247;BME280;27913;42.722;23.268;2023-02-14T00:20:19;96432.94;;;1.02;77.24
42247;BME280;27913;42.722;23.268;2023-02-14T00:22:44;96433.78;;;1.03;77.90
42247;BME280;27913;42.722;23.268;2023-02-14T00:25:10;96396.84;;;0.84;77.39
42247;BME280;27913;42.722;23.268;2023-02-14T00:27:35;96397.50;;;0.88;77.69
42247;BME280;27913;42.722;23.268;2023-02-14T00:30:01;96429.25;;;1.06;77.70
42247;BME280;27913;42.722;23.268;2023-02-14T00:32:30;96336.28;;;0.58;77.66
42247;BME280;27913;42.722;23.268;2023-02-14T00:34:56;96382.72;;;0.90;78.00
42247;BME280;27913;42.722;23.268;2023-02-14T00:37:21;96433.16;;;1.14;78.14
42247;BME280;27913;42.722;23.268;2023-02-14T00:39:47;96337.84;;;0.60;78.14
42247;BME280;27913;42.722;23.268;2023-02-14T00:42:13;96346.72;;;0.71;78.25
42247;BME280;27913;42.722;23.268;2023-02-14T00:44:39;96392.88;;;0.93;78.32
42247;BME280;27913;42.722;23.268;2023-02-14T00:47:04;96273.56;;;0.23;78.43
42247;BME280;27913;42.722;23.268;2023-02-14T00:49:30;96386.44;;;0.86;78.46
42247;BME280;27913;42.722;23.268;2023-02-14T00:51:55;96421.75;;;1.16;78.47
42247;BME280;27913;42.722;23.268;2023-02-14T00:54:21;96407.13;;;1.15;78.56
42247;BME280;27913;42.722;23.268;2023-02-14T00:56:46;96394.94;;;1.03;78.56
42247;BME280;27913;42.722;23.268;2023-02-14T00:59:12;96371.34;;;0.93;79.04
42247;BME280;27913;42.722;23.268;2023-02-14T01:04:13;96343.38;;;0.69;79.04
42247;BME280;27913;42.722;23.268;2023-02-14T01:06:38;96300.88;;;0.44;79.13
42247;BME280;27913;42.722;23.268;2023-02-14T01:09:04;96364.97;;;0.84;79.32
42247;BME280;27913;42.722;23.268;2023-02-14T01:11:29;96396.56;;;1.04;79.67
42247;BME280;27913;42.722;23.268;2023-02-14T01:13:56;96378.56;;;0.88;79.66
42247;BME280;27913;42.722;23.268;2023-02-14T01:16:25;96405.66;;;0.96;80.05
42247;BME280;27913;42.722;23.268;2023-02-14T01:18:51;96395.97;;;1.00;80.04
42247;BME280;27913;42.722;23.268;2023-02-14T01:21:20;96390.69;;;1.02;79.92
42247;BME280;27913;42.722;23.268;2023-02-14T01:23:47;96310.19;;;0.46;79.94
42247;BME280;27913;42.722;23.268;2023-02-14T01:26:14;96323.69;;;0.66;79.85
42247;BME280;27913;42.722;23.268;2023-02-14T01:28:40;96345.41;;;0.64;79.88
42247;BME280;27913;42.722;23.268;2023-02-14T01:33:35;96386.22;;;1.04;79.61
42247;BME280;27913;42.722;23.268;2023-02-14T01:36:00;96378.63;;;1.01;79.79
42247;BME280;27913;42.722;23.268;2023-02-14T01:38:26;96374.94;;;1.05;79.36
42247;BME280;27913;42.722;23.268;2023-02-14T01:40:51;96366.22;;;1.06;79.61
42247;BME280;27913;42.722;23.268;2023-02-14T01:43:17;96333.38;;;0.92;79.41
42247;BME280;27913;42.722;23.268;2023-02-14T01:45:42;96366.97;;;1.08;79.36
42247;BME280;27913;42.722;23.268;2023-02-14T01:48:08;96339.88;;;0.99;79.39
42247;BME280;27913;42.722;23.268;2023-02-14T01:50:37;96266.84;;;0.50;79.51
42247;BME280;27913;42.722;23.268;2023-02-14T01:53:11;96309.91;;;0.80;79.24
42247;BME280;27913;42.722;23.268;2023-02-14T01:55:51;96350.41;;;1.11;79.16
42247;BME280;27913;42.722;23.268;2023-02-14T01:58:21;96325.25;;;0.98;79.10
42247;BME280;27913;42.722;23.268;2023-02-14T02:00:48;96204.72;;;0.21;79.06
42247;BME280;27913;42.722;23.268;2023-02-14T02:06:01;96286.88;;;0.76;78.80
42247;BME280;27913;42.722;23.268;2023-02-14T02:08:27;96168.41;;;-0.07;78.76
42247;BME280;27913;42.722;23.268;2023-02-14T02:10:53;96290.88;;;0.67;78.90
42247;BME280;27913;42.722;23.268;2023-02-14T02:13:20;96348.75;;;1.10;79.16
42247;BME280;27913;42.722;23.268;2023-02-14T02:16:11;96277.34;;;0.62;78.96
42247;BME280;27913;42.722;23.268;2023-02-14T02:21:43;96323.56;;;0.97;79.09
42247;BME280;27913;42.722;23.268;2023-02-14T02:41:13;96283.63;;;0.87;79.20
42247;BME280;27913;42.722;23.268;2023-02-14T02:46:36;96307.66;;;1.03;79.39
42247;BME280;27913;42.722;23.268;2023-02-14T02:52:43;96276.50;;;0.76;78.90
42247;BME280;27913;42.722;23.268;2023-02-14T02:55:51;96312.31;;;0.83;78.95
42247;BME280;27913;42.722;23.268;2023-02-14T02:58:47;96246.88;;;0.52;79.26
42247;BME280;27913;42.722;23.268;2023-02-14T03:01:19;96314.91;;;0.98;79.19
42247;BME280;27913;42.722;23.268;2023-02-14T03:03:47;96316.66;;;0.98;79.20
42247;BME280;27913;42.722;23.268;2023-02-14T03:06:34;96325.25;;;0.98;79.34
42247;BME280;27913;42.722;23.268;2023-02-14T03:12:17;96324.41;;;0.98;79.18
42247;BME280;27913;42.722;23.268;2023-02-14T03:14:50;96284.38;;;0.74;79.13
42247;BME280;27913;42.722;23.268;2023-02-14T03:17:36;96253.44;;;0.58;79.18
42247;BME280;27913;42.722;23.268;2023-02-14T03:20:13;96272.91;;;0.78;79.10
42247;BME280;27913;42.722;23.268;2023-02-14T03:23:12;96305.34;;;0.99;79.17
42247;BME280;27913;42.722;23.268;2023-02-14T03:25:58;96300.09;;;1.00;79.12
42247;BME280;27913;42.722;23.268;2023-02-14T03:28:44;96282.13;;;0.97;79.28
42247;BME280;27913;42.722;23.268;2023-02-14T03:31:22;96222.25;;;0.59;79.29
42247;BME280;27913;42.722;23.268;2023-02-14T03:33:56;96239.00;;;0.68;79.34
42247;BME280;27913;42.722;23.268;2023-02-14T03:36:38;96289.91;;;0.97;79.18
42247;BME280;27913;42.722;23.268;2023-02-14T03:39:15;96297.13;;;0.92;79.39
42247;BME280;27913;42.722;23.268;2023-02-14T03:41:49;96304.00;;;0.93;79.18
42247;BME280;27913;42.722;23.268;2023-02-14T03:44:20;96294.09;;;0.85;79.59
42247;BME280;27913;42.722;23.268;2023-02-14T03:46:57;96220.69;;;0.42;79.38
42247;BME280;27913;42.722;23.268;2023-02-14T03:49:28;96285.56;;;0.83;79.21
42247;BME280;27913;42.722;23.268;2023-02-14T03:51:57;96283.63;;;0.87;79.17
42247;BME280;27913;42.722;23.268;2023-02-14T03:54:26;96286.13;;;0.88;78.94
42247;BME280;27913;42.722;23.268;2023-02-14T03:57:03;96266.78;;;0.79;79.09
42247;BME280;27913;42.722;23.268;2023-02-14T03:59:31;96267.16;;;0.88;78.99
42247;BME280;27913;42.722;23.268;2023-02-14T04:02:06;96219.22;;;0.53;78.94
42247;BME280;27913;42.722;23.268;2023-02-14T04:04:37;96265.78;;;0.82;79.02
42247;BME280;27913;42.722;23.268;2023-02-14T04:07:15;96257.47;;;0.77;78.83
42247;BME280;27913;42.722;23.268;2023-02-14T04:09:41;96189.47;;;0.31;79.08
42247;BME280;27913;42.722;23.268;2023-02-14T04:12:07;96204.78;;;0.48;78.88
42247;BME280;27913;42.722;23.268;2023-02-14T04:14:33;96197.69;;;0.38;78.83
42247;BME280;27913;42.722;23.268;2023-02-14T04:16:59;96238.50;;;0.62;78.80
42247;BME280;27913;42.722;23.268;2023-02-14T04:19:43;96266.63;;;0.82;78.97
42247;BME280;27913;42.722;23.268;2023-02-14T04:22:08;96229.00;;;0.62;78.82
42247;BME280;27913;42.722;23.268;2023-02-14T04:24:34;96235.56;;;0.68;78.60
42247;BME280;27913;42.722;23.268;2023-02-14T04:26:59;96259.22;;;0.76;78.67
42247;BME280;27913;42.722;23.268;2023-02-14T04:29:41;96187.97;;;0.27;78.83
42247;BME280;27913;42.722;23.268;2023-02-14T04:32:10;96270.88;;;0.69;79.00
42247;BME280;27913;42.722;23.268;2023-02-14T04:34:36;96262.84;;;0.74;78.98
42247;BME280;27913;42.722;23.268;2023-02-14T04:37:03;96232.78;;;0.56;78.95
42247;BME280;27913;42.722;23.268;2023-02-14T04:39:29;96263.75;;;0.72;78.72
42247;BME280;27913;42.722;23.268;2023-02-14T04:41:54;96266.09;;;0.77;78.74
42247;BME280;27913;42.722;23.268;2023-02-14T04:44:20;96248.84;;;0.76;78.38
42247;BME280;27913;42.722;23.268;2023-02-14T04:46:45;96204.88;;;0.47;78.58
42247;BME280;27913;42.722;23.268;2023-02-14T04:49:11;96197.31;;;0.44;78.41
42247;BME280;27913;42.722;23.268;2023-02-14T04:51:36;96247.41;;;0.72;78.50
42247;BME280;27913;42.722;23.268;2023-02-14T04:54:02;96162.00;;;0.28;78.63
42247;BME280;27913;42.722;23.268;2023-02-14T04:56:28;96245.06;;;0.67;78.75
42247;BME280;27913;42.722;23.268;2023-02-14T04:58:54;96178.00;;;0.20;78.62
42247;BME280;27913;42.722;23.268;2023-02-14T05:01:19;96250.34;;;0.66;78.73
42247;BME280;27913;42.722;23.268;2023-02-14T05:03:45;96230.94;;;0.58;79.04
42247;BME280;27913;42.722;23.268;2023-02-14T05:06:10;96199.44;;;0.37;78.87
42247;BME280;27913;42.722;23.268;2023-02-14T05:08:36;96237.50;;;0.64;78.94
42247;BME280;27913;42.722;23.268;2023-02-14T05:11:01;96242.59;;;0.66;78.95
42247;BME280;27913;42.722;23.268;2023-02-14T05:13:27;96247.75;;;0.66;78.97
42247;BME280;27913;42.722;23.268;2023-02-14T05:15:53;96238.16;;;0.68;78.88
42247;BME280;27913;42.722;23.268;2023-02-14T05:18:19;96241.28;;;0.73;78.78
42247;BME280;27913;42.722;23.268;2023-02-14T05:20:44;96209.59;;;0.55;78.61
42247;BME280;27913;42.722;23.268;2023-02-14T05:23:09;96238.31;;;0.79;78.40
42247;BME280;27913;42.722;23.268;2023-02-14T05:25:39;96237.50;;;0.79;78.19
42247;BME280;27913;42.722;23.268;2023-02-14T05:28:05;96246.06;;;0.79;78.22
42247;BME280;27913;42.722;23.268;2023-02-14T05:30:30;96248.75;;;0.78;78.19
42247;BME280;27913;42.722;23.268;2023-02-14T05:32:56;96250.53;;;0.77;78.45
42247;BME280;27913;42.722;23.268;2023-02-14T05:35:21;96239.34;;;0.77;78.13
42247;BME280;27913;42.722;23.268;2023-02-14T05:37:47;96197.03;;;0.48;78.06
42247;BME280;27913;42.722;23.268;2023-02-14T05:40:12;96241.47;;;0.70;78.28
42247;BME280;27913;42.722;23.268;2023-02-14T05:42:39;96184.09;;;0.34;78.61
42247;BME280;27913;42.722;23.268;2023-02-14T05:45:05;96234.81;;;0.66;78.73
42247;BME280;27913;42.722;23.268;2023-02-14T05:47:31;96241.59;;;0.68;78.77
42247;BME280;27913;42.722;23.268;2023-02-14T05:49:57;96078.34;;;-0.29;78.58
42247;BME280;27913;42.722;23.268;2023-02-14T05:52:22;96202.22;;;0.48;78.84
42247;BME280;27913;42.722;23.268;2023-02-14T05:54:48;96049.28;;;-0.47;78.86
42247;BME280;27913;42.722;23.268;2023-02-14T05:57:14;96183.28;;;0.33;78.74
42247;BME280;27913;42.722;23.268;2023-02-14T05:59:39;96237.13;;;0.70;78.78
42247;BME280;27913;42.722;23.268;2023-02-14T06:02:04;96032.03;;;-0.62;79.07
42247;BME280;27913;42.722;23.268;2023-02-14T06:04:30;96161.44;;;0.23;79.18
42247;BME280;27913;42.722;23.268;2023-02-14T06:06:55;96201.47;;;0.46;79.29
42247;BME280;27913;42.722;23.268;2023-02-14T06:09:21;96205.16;;;0.57;79.11
42247;BME280;27913;42.722;23.268;2023-02-14T06:11:46;96185.59;;;0.38;79.15
42247;BME280;27913;42.722;23.268;2023-02-14T06:14:12;96196.28;;;0.46;79.16
42247;BME280;27913;42.722;23.268;2023-02-14T06:16:38;96125.47;;;0.05;79.01
42247;BME280;27913;42.722;23.268;2023-02-14T06:19:03;96228.34;;;0.73;79.28
42247;BME280;27913;42.722;23.268;2023-02-14T06:21:29;96214.75;;;0.69;79.21
42247;BME280;27913;42.722;23.268;2023-02-14T06:23:54;96151.84;;;0.25;78.92
42247;BME280;27913;42.722;23.268;2023-02-14T06:26:20;96201.25;;;0.64;79.16
42247;BME280;27913;42.722;23.268;2023-02-14T06:28:45;96222.31;;;0.72;79.16
42247;BME280;27913;42.722;23.268;2023-02-14T06:31:15;96245.75;;;0.99;79.00
42247;BME280;27913;42.722;23.268;2023-02-14T06:33:41;96207.31;;;0.78;79.01
42247;BME280;27913;42.722;23.268;2023-02-14T06:36:07;96229.50;;;0.96;79.23
42247;BME280;27913;42.722;23.268;2023-02-14T06:38:33;96201.41;;;0.76;78.99
42247;BME280;27913;42.722;23.268;2023-02-14T06:41:04;96199.44;;;0.79;79.34
42247;BME280;27913;42.722;23.268;2023-02-14T06:43:30;96251.31;;;1.07;79.58
42247;BME280;27913;42.722;23.268;2023-02-14T06:45:56;96208.81;;;0.82;79.46
42247;BME280;27913;42.722;23.268;2023-02-14T06:48:21;96140.06;;;0.48;79.73
42247;BME280;27913;42.722;23.268;2023-02-14T06:50:46;96208.84;;;0.95;79.71
42247;BME280;27913;42.722;23.268;2023-02-14T06:53:12;96122.88;;;0.47;79.69
42247;BME280;27913;42.722;23.268;2023-02-14T06:55:37;96186.25;;;0.97;79.80
42247;BME280;27913;42.722;23.268;2023-02-14T06:58:03;96115.47;;;0.56;79.98
42247;BME280;27913;42.722;23.268;2023-02-14T07:00:28;96210.19;;;1.28;80.01
42247;BME280;27913;42.722;23.268;2023-02-14T07:02:54;96233.88;;;1.37;80.41
42247;BME280;27913;42.722;23.268;2023-02-14T07:05:19;96193.78;;;1.15;80.56
42247;BME280;27913;42.722;23.268;2023-02-14T07:07:45;96176.81;;;1.11;80.79
42247;BME280;27913;42.722;23.268;2023-02-14T07:10:11;96183.75;;;1.23;81.14
42247;BME280;27913;42.722;23.268;2023-02-14T07:12:36;96134.34;;;0.99;81.22
42247;BME280;27913;42.722;23.268;2023-02-14T07:15:08;96109.53;;;0.81;81.43
42247;BME280;27913;42.722;23.268;2023-02-14T07:17:34;96223.25;;;1.54;81.47
42247;BME280;27913;42.722;23.268;2023-02-14T07:20:03;96133.63;;;0.96;82.05
42247;BME280;27913;42.722;23.268;2023-02-14T07:22:31;96132.81;;;0.96;82.87
42247;BME280;27913;42.722;23.268;2023-02-14T07:24:56;96226.22;;;1.48;83.37
42247;BME280;27913;42.722;23.268;2023-02-14T07:27:22;96233.09;;;1.49;83.97
42247;BME280;27913;42.722;23.268;2023-02-14T07:29:47;96226.03;;;1.51;84.50
42247;BME280;27913;42.722;23.268;2023-02-14T07:32:13;96237.34;;;1.50;84.54
42247;BME280;27913;42.722;23.268;2023-02-14T07:34:38;96223.94;;;1.43;84.94
42247;BME280;27913;42.722;23.268;2023-02-14T07:37:03;96193.09;;;1.26;84.89
42247;BME280;27913;42.722;23.268;2023-02-14T07:39:29;96191.25;;;1.41;84.91
42247;BME280;27913;42.722;23.268;2023-02-14T07:41:54;96181.78;;;1.27;85.53
42247;BME280;27913;42.722;23.268;2023-02-14T07:44:20;96179.41;;;1.24;85.11
42247;BME280;27913;42.722;23.268;2023-02-14T07:46:45;96244.44;;;1.61;85.31
42247;BME280;27913;42.722;23.268;2023-02-14T07:49:11;96245.34;;;1.60;85.57
42247;BME280;27913;42.722;23.268;2023-02-14T07:51:36;96169.94;;;1.10;85.70
42247;BME280;27913;42.722;23.268;2023-02-14T07:54:02;96253.22;;;1.59;85.53
42247;BME280;27913;42.722;23.268;2023-02-14T07:56:28;96167.88;;;1.15;85.46
42247;BME280;27913;42.722;23.268;2023-02-14T07:58:53;96199.25;;;1.38;85.75
42247;BME280;27913;42.722;23.268;2023-02-14T08:01:19;96255.53;;;1.63;85.72
42247;BME280;27913;42.722;23.268;2023-02-14T08:03:48;96209.63;;;1.38;86.08
42247;BME280;27913;42.722;23.268;2023-02-14T08:06:20;96269.63;;;1.59;86.45
42247;BME280;27913;42.722;23.268;2023-02-14T08:08:47;96151.31;;;0.90;86.25
42247;BME280;27913;42.722;23.268;2023-02-14T08:11:12;96263.81;;;1.55;86.65
42247;BME280;27913;42.722;23.268;2023-02-14T08:14:01;96078.53;;;0.39;86.79
42247;BME280;27913;42.722;23.268;2023-02-14T08:16:27;96269.41;;;1.62;86.99
42247;BME280;27913;42.722;23.268;2023-02-14T08:18:52;96228.50;;;1.40;86.62
42247;BME280;27913;42.722;23.268;2023-02-14T08:21:18;96227.66;;;1.39;86.14
42247;BME280;27913;42.722;23.268;2023-02-14T08:23:43;96276.28;;;1.63;86.41
42247;BME280;27913;42.722;23.268;2023-02-14T08:26:08;96257.41;;;1.61;86.22
42247;BME280;27913;42.722;23.268;2023-02-14T08:28:34;96224.25;;;1.39;86.13
42247;BME280;27913;42.722;23.268;2023-02-14T08:31:01;96275.34;;;1.64;85.51
42247;BME280;27913;42.722;23.268;2023-02-14T08:33:26;96258.03;;;1.65;85.65
42247;BME280;27913;42.722;23.268;2023-02-14T08:35:52;96101.75;;;0.68;85.28
42247;BME280;27913;42.722;23.268;2023-02-14T08:38:18;96194.63;;;1.15;86.17
42247;BME280;27913;42.722;23.268;2023-02-14T08:40:43;96223.09;;;1.30;86.89
42247;BME280;27913;42.722;23.268;2023-02-14T08:43:09;96201.22;;;1.06;87.09
42247;BME280;27913;42.722;23.268;2023-02-14T08:45:35;96222.56;;;1.25;87.63
42247;BME280;27913;42.722;23.268;2023-02-14T08:48:06;96088.00;;;0.26;87.91
42247;BME280;27913;42.722;23.268;2023-02-14T08:50:32;96282.91;;;1.54;87.94
42247;BME280;27913;42.722;23.268;2023-02-14T08:52:58;96228.91;;;1.34;87.87
42247;BME280;27913;42.722;23.268;2023-02-14T08:55:24;96288.72;;;1.58;87.63
42247;BME280;27913;42.722;23.268;2023-02-14T08:57:51;96270.22;;;1.50;87.96
42247;BME280;27913;42.722;23.268;2023-02-14T09:00:19;96089.81;;;0.38;87.93
42247;BME280;27913;42.722;23.268;2023-02-14T09:02:44;96273.25;;;1.56;87.65
42247;BME280;27913;42.722;23.268;2023-02-14T09:05:10;96267.03;;;1.59;87.25
42247;BME280;27913;42.722;23.268;2023-02-14T09:07:35;96251.06;;;1.65;86.95
42247;BME280;27913;42.722;23.268;2023-02-14T09:10:01;96275.66;;;1.60;86.96
42247;BME280;27913;42.722;23.268;2023-02-14T09:12:26;96275.13;;;1.67;86.83
42247;BME280;27913;42.722;23.268;2023-02-14T09:14:52;96112.91;;;0.69;86.67
42247;BME280;27913;42.722;23.268;2023-02-14T09:17:17;96251.59;;;1.71;86.58
42247;BME280;27913;42.722;23.268;2023-02-14T09:19:43;96163.44;;;1.17;86.52
42247;BME280;27913;42.722;23.268;2023-02-14T09:22:09;96064.38;;;0.45;86.29
42247;BME280;27913;42.722;23.268;2023-02-14T09:24:41;96068.69;;;0.44;86.79
42247;BME280;27913;42.722;23.268;2023-02-14T09:27:07;96099.78;;;0.72;86.88
42247;BME280;27913;42.722;23.268;2023-02-14T09:29:33;96265.28;;;1.60;87.37
42247;BME280;27913;42.722;23.268;2023-02-14T09:32:00;96104.16;;;0.57;87.11
42247;BME280;27913;42.722;23.268;2023-02-14T09:34:26;96257.50;;;1.60;87.13
42247;BME280;27913;42.722;23.268;2023-02-14T09:37:12;96255.19;;;1.55;87.04
42247;BME280;27913;42.722;23.268;2023-02-14T09:39:56;96265.06;;;1.63;87.14
42247;BME280;27913;42.722;23.268;2023-02-14T09:45:13;96215.50;;;1.27;87.00
42247;BME280;27913;42.722;23.268;2023-02-14T09:47:59;96259.03;;;1.62;87.00
42247;BME280;27913;42.722;23.268;2023-02-14T09:51:07;96104.03;;;0.73;86.48
42247;BME280;27913;42.722;23.268;2023-02-14T09:53:36;96172.16;;;1.16;86.93
42247;BME280;27913;42.722;23.268;2023-02-14T09:56:13;96235.81;;;1.61;86.83
42247;BME280;27913;42.722;23.268;2023-02-14T09:58:51;96242.03;;;1.58;87.02
42247;BME280;27913;42.722;23.268;2023-02-14T10:01:27;96157.66;;;0.99;87.16
42247;BME280;27913;42.722;23.268;2023-02-14T10:07:25;96200.41;;;1.34;87.26
42247;BME280;27913;42.722;23.268;2023-02-14T10:12:53;96175.59;;;1.29;86.82
42247;BME280;27913;42.722;23.268;2023-02-14T10:15:24;96176.72;;;1.25;86.58
42247;BME280;27913;42.722;23.268;2023-02-14T10:18:21;96230.00;;;1.57;86.55
42247;BME280;27913;42.722;23.268;2023-02-14T10:20:56;96231.16;;;1.53;86.71
42247;BME280;27913;42.722;23.268;2023-02-14T10:23:42;96139.09;;;0.92;86.69
42247;BME280;27913;42.722;23.268;2023-02-14T10:26:15;96170.69;;;1.12;86.86
42247;BME280;27913;42.722;23.268;2023-02-14T10:28:47;96206.50;;;1.32;86.65
42247;BME280;27913;42.722;23.268;2023-02-14T10:31:20;96148.97;;;1.00;86.77
42247;BME280;27913;42.722;23.268;2023-02-14T10:37:16;96222.31;;;1.55;86.07
42247;BME280;27913;42.722;23.268;2023-02-14T10:45:50;96217.34;;;1.52;85.51
42247;BME280;27913;42.722;23.268;2023-02-14T10:56:26;96165.06;;;1.18;85.25
42247;BME280;27913;42.722;23.268;2023-02-14T10:58:54;96133.56;;;1.11;85.05
42247;BME280;27913;42.722;23.268;2023-02-14T11:01:21;96169.16;;;1.22;84.40
42247;BME280;27913;42.722;23.268;2023-02-14T11:03:58;96202.63;;;1.53;84.36
42247;BME280;27913;42.722;23.268;2023-02-14T11:06:31;96197.31;;;1.54;83.74
42247;BME280;27913;42.722;23.268;2023-02-14T11:08:57;96180.41;;;1.62;83.28
42247;BME280;27913;42.722;23.268;2023-02-14T11:11:27;96194.94;;;1.64;83.03
42247;BME280;27913;42.722;23.268;2023-02-14T11:13:54;96131.84;;;1.25;82.49
42247;BME280;27913;42.722;23.268;2023-02-14T11:16:35;96201.59;;;1.68;82.05
42247;BME280;27913;42.722;23.268;2023-02-14T11:19:28;96205.84;;;1.69;81.88
42247;BME280;27913;42.722;23.268;2023-02-14T11:21:56;96191.34;;;1.67;81.86
42247;BME280;27913;42.722;23.268;2023-02-14T11:24:35;96083.06;;;1.04;81.58
42247;BME280;27913;42.722;23.268;2023-02-14T11:27:03;96191.66;;;1.75;81.22
42247;BME280;27913;42.722;23.268;2023-02-14T11:29:44;96109.34;;;1.38;80.83
42247;BME280;27913;42.722;23.268;2023-02-14T11:32:23;96097.94;;;1.41;80.35
42247;BME280;27913;42.722;23.268;2023-02-14T11:34:57;96186.44;;;1.88;80.07
42247;BME280;27913;42.722;23.268;2023-02-14T11:37:31;96155.13;;;1.78;79.57
42247;BME280;27913;42.722;23.268;2023-02-14T11:39:59;96173.28;;;1.91;79.17
42247;BME280;27913;42.722;23.268;2023-02-14T11:42:45;96108.66;;;1.49;79.12
42247;BME280;27913;42.722;23.268;2023-02-14T11:45:27;96173.47;;;1.88;79.14
42247;BME280;27913;42.722;23.268;2023-02-14T11:48:16;96154.50;;;1.88;78.51
42247;BME280;27913;42.722;23.268;2023-02-14T11:50:51;96171.72;;;1.89;78.00
42247;BME280;27913;42.722;23.268;2023-02-14T11:53:20;96157.28;;;1.85;78.42
42247;BME280;27913;42.722;23.268;2023-02-14T11:55:51;96163.94;;;1.89;78.59
42247;BME280;27913;42.722;23.268;2023-02-14T11:58:53;96154.59;;;1.99;78.58
42247;BME280;27913;42.722;23.268;2023-02-14T12:03:47;96152.50;;;2.04;78.17
42247;BME280;27913;42.722;23.268;2023-02-14T12:06:23;96153.84;;;2.10;78.13
42247;BME280;27913;42.722;23.268;2023-02-14T12:09:11;96144.09;;;2.14;77.97
42247;BME280;27913;42.722;23.268;2023-02-14T12:11:40;95968.13;;;0.92;77.66
42247;BME280;27913;42.722;23.268;2023-02-14T12:14:19;96146.06;;;2.10;77.99
42247;BME280;27913;42.722;23.268;2023-02-14T12:16:59;96147.19;;;2.19;77.78
42247;BME280;27913;42.722;23.268;2023-02-14T12:20:22;96142.41;;;2.13;77.78
42247;BME280;27913;42.722;23.268;2023-02-14T12:22:28;96144.31;;;2.11;78.05
42247;BME280;27913;42.722;23.268;2023-02-14T12:25:15;96138.19;;;2.12;78.09
42247;BME280;27913;42.722;23.268;2023-02-14T12:27:51;96132.88;;;2.26;77.69
42247;BME280;27913;42.722;23.268;2023-02-14T12:30:24;96125.59;;;2.32;77.53
42247;BME280;27913;42.722;23.268;2023-02-14T12:32:52;96115.19;;;2.32;77.67
42247;BME280;27913;42.722;23.268;2023-02-14T12:43:55;96121.94;;;2.34;77.55
42247;BME280;27913;42.722;23.268;2023-02-14T12:46:53;96083.78;;;2.10;77.79
42247;BME280;27913;42.722;23.268;2023-02-14T13:11:24;95935.38;;;1.30;79.24
42247;BME280;27913;42.722;23.268;2023-02-14T13:13:55;96105.53;;;2.34;78.98
42247;BME280;27913;42.722;23.268;2023-02-14T13:16:42;96098.44;;;2.36;79.33
42247;BME280;27913;42.722;23.268;2023-02-14T13:21:57;96103.44;;;2.39;79.60
42247;BME280;27913;42.722;23.268;2023-02-14T13:24:45;96054.50;;;2.08;79.57
42247;BME280;27913;42.722;23.268;2023-02-14T13:27:17;96006.75;;;1.73;79.34
42247;BME280;27913;42.722;23.268;2023-02-14T13:29:48;96094.09;;;2.36;79.78
42247;BME280;27913;42.722;23.268;2023-02-14T13:32:19;96090.03;;;2.32;79.94
42247;BME280;27913;42.722;23.268;2023-02-14T13:34:47;96043.75;;;1.88;80.23
42247;BME280;27913;42.722;23.268;2023-02-14T13:37:17;96094.19;;;2.35;80.02
42247;BME280;27913;42.722;23.268;2023-02-14T13:39:50;96092.56;;;2.34;80.27
42247;BME280;27913;42.722;23.268;2023-02-14T13:50:55;96091.16;;;2.41;79.85
42247;BME280;27913;42.722;23.268;2023-02-14T13:58:35;96101.66;;;2.39;79.67
42247;BME280;27913;42.722;23.268;2023-02-14T14:03:57;96041.34;;;1.98;79.50
42247;BME280;27913;42.722;23.268;2023-02-14T14:06:23;96099.91;;;2.40;79.61
42247;BME280;27913;42.722;23.268;2023-02-14T14:08:51;96107.19;;;2.35;79.85
42247;BME280;27913;42.722;23.268;2023-02-14T14:13:58;96074.53;;;2.06;80.06
42247;BME280;27913;42.722;23.268;2023-02-14T14:16:34;96107.53;;;2.30;80.32
42247;BME280;27913;42.722;23.268;2023-02-14T14:22:01;96113.53;;;2.31;79.74
42247;BME280;27913;42.722;23.268;2023-02-14T14:24:38;96099.22;;;2.25;79.97
42247;BME280;27913;42.722;23.268;2023-02-14T14:27:19;96102.31;;;2.30;80.17
42247;BME280;27913;42.722;23.268;2023-02-14T14:30:17;96095.78;;;2.24;80.22
42247;BME280;27913;42.722;23.268;2023-02-14T14:32:43;96090.25;;;2.29;80.26
42247;BME280;27913;42.722;23.268;2023-02-14T14:35:17;96045.38;;;2.02;80.22
42247;BME280;27913;42.722;23.268;2023-02-14T14:37:55;96048.38;;;2.09;80.17
42247;BME280;27913;42.722;23.268;2023-02-14T14:40:27;95967.16;;;1.58;79.99
42247;BME280;27913;42.722;23.268;2023-02-14T14:43:04;96081.06;;;2.25;80.15
42247;BME280;27913;42.722;23.268;2023-02-14T14:45:30;96035.84;;;2.03;80.00
42247;BME280;27913;42.722;23.268;2023-02-14T14:48:06;96077.91;;;2.33;80.06
42247;BME280;27913;42.722;23.268;2023-02-14T14:50:34;95921.34;;;1.32;79.51
42247;BME280;27913;42.722;23.268;2023-02-14T14:53:03;96081.34;;;2.33;79.67
42247;BME280;27913;42.722;23.268;2023-02-14T14:55:35;96011.47;;;1.92;79.32
42247;BME280;27913;42.722;23.268;2023-02-14T14:58:05;96014.69;;;1.96;79.20
42247;BME280;27913;42.722;23.268;2023-02-14T15:00:37;96079.78;;;2.31;79.25
42247;BME280;27913;42.722;23.268;2023-02-14T15:03:14;95920.63;;;1.30;79.15
42247;BME280;27913;42.722;23.268;2023-02-14T15:05:46;96076.38;;;2.30;79.27
42247;BME280;27913;42.722;23.268;2023-02-14T15:08:14;96049.31;;;2.08;79.26
42247;BME280;27913;42.722;23.268;2023-02-14T15:10:40;96056.16;;;2.09;79.40
42247;BME280;27913;42.722;23.268;2023-02-14T15:13:10;96053.06;;;2.04;79.38
42247;BME280;27913;42.722;23.268;2023-02-14T15:15:56;96069.84;;;2.11;79.66
42247;BME280;27913;42.722;23.268;2023-02-14T15:18:22;96089.22;;;2.32;79.81